FDX52F ROAH-RJFF
Flight info
| Callsign | FDX52F |
|---|---|
| Flight time | 1h 26m |
| Altitude | 27000 |
| Route | AMAMI Y25 GOKYO/N0470F280 Y25 ISKUP |
| Aircraft | B722/M-SDFGHRWY/C |
Departure
| Time | 2026-04-26 18:53 |
|---|---|
| Airport | Naha International Airport (ROAH) |
Arrival
| Time | 2026-04-26 20:19 |
|---|---|
| Airport | Fukuoka Airport (RJFF) |
| Time | Latitude | Longitude | Altitude | Speed | Heading |
|---|---|---|---|---|---|
| 2026-04-26 17:59 | 26.21627 | 127.65186 | 27 ft | 0 kts | 158° |
| 2026-04-26 18:29 | 26.21633 | 127.65183 | 26 ft | 2 kts | 158° |
| 2026-04-26 18:29 | 26.21648 | 127.65177 | 27 ft | 2 kts | 158° |
| 2026-04-26 18:29 | 26.21663 | 127.65170 | 26 ft | 2 kts | 158° |
| 2026-04-26 18:29 | 26.21679 | 127.65163 | 27 ft | 2 kts | 158° |
| 2026-04-26 18:30 | 26.21694 | 127.65165 | 26 ft | 2 kts | 220° |
| 2026-04-26 18:30 | 26.21698 | 127.65173 | 26 ft | 0 kts | 252° |
| 2026-04-26 18:36 | 26.21697 | 127.65170 | 26 ft | 2 kts | 252° |
| 2026-04-26 18:36 | 26.21688 | 127.65138 | 25 ft | 7 kts | 250° |
| 2026-04-26 18:36 | 26.21666 | 127.65075 | 26 ft | 10 kts | 247° |
| 2026-04-26 18:36 | 26.21641 | 127.65006 | 24 ft | 10 kts | 248° |
| 2026-04-26 18:37 | 26.21610 | 127.64930 | 24 ft | 12 kts | 235° |
| 2026-04-26 18:37 | 26.21552 | 127.64865 | 24 ft | 12 kts | 223° |
| 2026-04-26 18:37 | 26.21486 | 127.64795 | 24 ft | 14 kts | 224° |
| 2026-04-26 18:37 | 26.21407 | 127.64743 | 24 ft | 13 kts | 187° |
| 2026-04-26 18:38 | 26.21321 | 127.64739 | 24 ft | 12 kts | 176° |
| 2026-04-26 18:38 | 26.21275 | 127.64741 | 23 ft | 8 kts | 178° |
| 2026-04-26 18:38 | 26.21224 | 127.64743 | 25 ft | 8 kts | 178° |
| 2026-04-26 18:38 | 26.21168 | 127.64746 | 21 ft | 7 kts | 177° |
| 2026-04-26 18:39 | 26.21163 | 127.64746 | 21 ft | 0 kts | 177° |
| 2026-04-26 18:39 | 26.21131 | 127.64748 | 21 ft | 10 kts | 177° |
| 2026-04-26 18:39 | 26.21042 | 127.64751 | 21 ft | 14 kts | 184° |
| 2026-04-26 18:39 | 26.20913 | 127.64731 | 21 ft | 14 kts | 176° |
| 2026-04-26 18:40 | 26.20842 | 127.64735 | 20 ft | 16 kts | 178° |
| 2026-04-26 18:40 | 26.20725 | 127.64739 | 20 ft | 18 kts | 177° |
| 2026-04-26 18:40 | 26.20594 | 127.64747 | 20 ft | 20 kts | 177° |
| 2026-04-26 18:40 | 26.20484 | 127.64752 | 21 ft | 13 kts | 178° |
| 2026-04-26 18:41 | 26.20404 | 127.64755 | 21 ft | 12 kts | 178° |
| 2026-04-26 18:41 | 26.20308 | 127.64760 | 21 ft | 15 kts | 177° |
| 2026-04-26 18:41 | 26.20197 | 127.64765 | 21 ft | 17 kts | 178° |
| 2026-04-26 18:41 | 26.20072 | 127.64771 | 20 ft | 19 kts | 177° |
| 2026-04-26 18:42 | 26.19942 | 127.64777 | 21 ft | 19 kts | 178° |
| 2026-04-26 18:42 | 26.19804 | 127.64783 | 20 ft | 21 kts | 177° |
| 2026-04-26 18:42 | 26.19655 | 127.64790 | 20 ft | 22 kts | 178° |
| 2026-04-26 18:42 | 26.19494 | 127.64798 | 21 ft | 24 kts | 177° |
| 2026-04-26 18:43 | 26.19324 | 127.64806 | 21 ft | 25 kts | 178° |
| 2026-04-26 18:43 | 26.19153 | 127.64814 | 20 ft | 19 kts | 177° |
| 2026-04-26 18:43 | 26.19016 | 127.64821 | 21 ft | 21 kts | 178° |
| 2026-04-26 18:43 | 26.18865 | 127.64828 | 20 ft | 22 kts | 177° |
| 2026-04-26 18:44 | 26.18706 | 127.64835 | 21 ft | 23 kts | 177° |
| 2026-04-26 18:44 | 26.18586 | 127.64841 | 21 ft | 11 kts | 178° |
| 2026-04-26 18:44 | 26.18498 | 127.64845 | 20 ft | 14 kts | 178° |
| 2026-04-26 18:44 | 26.18396 | 127.64849 | 20 ft | 15 kts | 176° |
| 2026-04-26 18:45 | 26.18340 | 127.64854 | 20 ft | 0 kts | 162° |
| 2026-04-26 18:45 | 26.18336 | 127.64854 | 20 ft | 2 kts | 178° |
| 2026-04-26 18:45 | 26.18298 | 127.64854 | 20 ft | 7 kts | 186° |
| 2026-04-26 18:46 | 26.18266 | 127.64841 | 21 ft | 0 kts | 220° |
| 2026-04-26 18:47 | 26.18259 | 127.64834 | 20 ft | 4 kts | 227° |
| 2026-04-26 18:48 | 26.18243 | 127.64784 | 20 ft | 8 kts | 265° |
| 2026-04-26 18:48 | 26.18242 | 127.64761 | 19 ft | 0 kts | 267° |
| 2026-04-26 18:49 | 26.18242 | 127.64760 | 19 ft | 1 kts | 267° |
| 2026-04-26 18:49 | 26.18241 | 127.64730 | 19 ft | 7 kts | 268° |
| 2026-04-26 18:49 | 26.18248 | 127.64665 | 21 ft | 7 kts | 309° |
| 2026-04-26 18:49 | 26.18272 | 127.64652 | 20 ft | 0 kts | 352° |
| 2026-04-26 18:51 | 26.18297 | 127.64648 | 19 ft | 16 kts | 354° |
| 2026-04-26 18:52 | 26.18601 | 127.64633 | 20 ft | 72 kts | 358° |
| 2026-04-26 18:52 | 26.19289 | 127.64600 | 21 ft | 124 kts | 357° |
| 2026-04-26 18:52 | 26.20288 | 127.64554 | 71 ft | 157 kts | 356° |
| 2026-04-26 18:52 | 26.21375 | 127.64546 | 554 ft | 157 kts | 0° |
| 2026-04-26 18:53 | 26.22487 | 127.64601 | 945 ft | 165 kts | 1° |
| 2026-04-26 18:53 | 26.23677 | 127.64644 | 1376 ft | 179 kts | 356° |
| 2026-04-26 18:53 | 26.24952 | 127.64435 | 1875 ft | 195 kts | 348° |
| 2026-04-26 18:53 | 26.26300 | 127.63958 | 2387 ft | 213 kts | 331° |
| 2026-04-26 18:54 | 26.27617 | 127.63039 | 2905 ft | 234 kts | 326° |
| 2026-04-26 18:54 | 26.28991 | 127.62087 | 3759 ft | 231 kts | 329° |
| 2026-04-26 18:54 | 26.30415 | 127.61193 | 4116 ft | 240 kts | 330° |
| 2026-04-26 18:54 | 26.31891 | 127.60285 | 4558 ft | 244 kts | 330° |
| 2026-04-26 18:55 | 26.33385 | 127.59343 | 4953 ft | 249 kts | 329° |
| 2026-04-26 18:55 | 26.34909 | 127.58374 | 5342 ft | 255 kts | 329° |
| 2026-04-26 18:55 | 26.36464 | 127.57391 | 5749 ft | 259 kts | 329° |
| 2026-04-26 18:55 | 26.38033 | 127.56400 | 6237 ft | 260 kts | 328° |
| 2026-04-26 18:56 | 26.39464 | 127.55177 | 6641 ft | 261 kts | 310° |
| 2026-04-26 18:56 | 26.40416 | 127.53490 | 7073 ft | 262 kts | 292° |
| 2026-04-26 18:56 | 26.40805 | 127.51499 | 7493 ft | 266 kts | 273° |
| 2026-04-26 18:56 | 26.40546 | 127.49457 | 7913 ft | 270 kts | 253° |
| 2026-04-26 18:57 | 26.39665 | 127.47592 | 8322 ft | 275 kts | 237° |
| 2026-04-26 18:57 | 26.38861 | 127.46452 | 8611 ft | 278 kts | 231° |
| 2026-04-26 18:57 | 26.37093 | 127.44356 | 9171 ft | 281 kts | 230° |
| 2026-04-26 18:57 | 26.35760 | 127.42749 | 9584 ft | 284 kts | 227° |
| 2026-04-26 18:58 | 26.34120 | 127.41506 | 9967 ft | 290 kts | 206° |
| 2026-04-26 18:58 | 26.32159 | 127.40918 | 10359 ft | 295 kts | 189° |
| 2026-04-26 18:58 | 26.30089 | 127.40798 | 10735 ft | 304 kts | 181° |
| 2026-04-26 18:58 | 26.27925 | 127.40911 | 11122 ft | 320 kts | 180° |
| 2026-04-26 18:59 | 26.25637 | 127.41001 | 11529 ft | 337 kts | 182° |
| 2026-04-26 18:59 | 26.23232 | 127.40991 | 11938 ft | 354 kts | 184° |
| 2026-04-26 18:59 | 26.20716 | 127.40981 | 12340 ft | 370 kts | 182° |
| 2026-04-26 18:59 | 26.18088 | 127.41048 | 12740 ft | 385 kts | 180° |
| 2026-04-26 19:00 | 26.15393 | 127.41555 | 13152 ft | 404 kts | 164° |
| 2026-04-26 19:00 | 26.12806 | 127.42932 | 13568 ft | 422 kts | 148° |
| 2026-04-26 19:00 | 26.10569 | 127.45136 | 13968 ft | 438 kts | 131° |
| 2026-04-26 19:00 | 26.08946 | 127.48039 | 14419 ft | 448 kts | 114° |
| 2026-04-26 19:01 | 26.08106 | 127.51385 | 15035 ft | 452 kts | 96° |
| 2026-04-26 19:01 | 26.08146 | 127.54876 | 15583 ft | 454 kts | 82° |
| 2026-04-26 19:01 | 26.08669 | 127.58349 | 16131 ft | 457 kts | 75° |
| 2026-04-26 19:01 | 26.09498 | 127.61768 | 16702 ft | 459 kts | 71° |
| 2026-04-26 19:02 | 26.10434 | 127.65178 | 17246 ft | 464 kts | 71° |
| 2026-04-26 19:02 | 26.11245 | 127.68678 | 17770 ft | 470 kts | 75° |
| 2026-04-26 19:02 | 26.11888 | 127.72264 | 18287 ft | 474 kts | 76° |
| 2026-04-26 19:02 | 26.12337 | 127.74650 | 18559 ft | 477 kts | 74° |
| 2026-04-26 19:03 | 26.13445 | 127.79453 | 19154 ft | 481 kts | 71° |
| 2026-04-26 19:03 | 26.14283 | 127.83075 | 19593 ft | 485 kts | 73° |
| 2026-04-26 19:03 | 26.15020 | 127.86746 | 20014 ft | 489 kts | 75° |
| 2026-04-26 19:03 | 26.15975 | 127.90363 | 20388 ft | 487 kts | 64° |
| 2026-04-26 19:04 | 26.17523 | 127.93701 | 20803 ft | 483 kts | 53° |
| 2026-04-26 19:04 | 26.19568 | 127.96647 | 21189 ft | 480 kts | 42° |
| 2026-04-26 19:04 | 26.22034 | 127.99112 | 21567 ft | 475 kts | 31° |
| 2026-04-26 19:04 | 26.24752 | 128.01192 | 21931 ft | 474 kts | 27° |
| 2026-04-26 19:05 | 26.30490 | 128.04840 | 22650 ft | 478 kts | 24° |
| 2026-04-26 19:05 | 26.33302 | 128.06751 | 22985 ft | 482 kts | 27° |
| 2026-04-26 19:05 | 26.36128 | 128.08787 | 23286 ft | 485 kts | 27° |
| 2026-04-26 19:06 | 26.39007 | 128.10754 | 23583 ft | 485 kts | 25° |
| 2026-04-26 19:06 | 26.41928 | 128.12649 | 23842 ft | 487 kts | 25° |
| 2026-04-26 19:06 | 26.44839 | 128.14598 | 24104 ft | 490 kts | 26° |
| 2026-04-26 19:06 | 26.47732 | 128.16619 | 24376 ft | 491 kts | 26° |
| 2026-04-26 19:07 | 26.50646 | 128.18624 | 24609 ft | 493 kts | 25° |
| 2026-04-26 19:07 | 26.53583 | 128.20583 | 24892 ft | 493 kts | 25° |
| 2026-04-26 19:07 | 26.56531 | 128.22563 | 25137 ft | 495 kts | 26° |
| 2026-04-26 19:07 | 26.59468 | 128.24585 | 25350 ft | 497 kts | 26° |
| 2026-04-26 19:08 | 26.62417 | 128.26613 | 25582 ft | 498 kts | 25° |
| 2026-04-26 19:08 | 26.65383 | 128.28619 | 25808 ft | 499 kts | 25° |
| 2026-04-26 19:08 | 26.68238 | 128.30867 | 25995 ft | 509 kts | 35° |
| 2026-04-26 19:08 | 26.70747 | 128.33700 | 26197 ft | 517 kts | 42° |
| 2026-04-26 19:09 | 26.73070 | 128.36806 | 26396 ft | 522 kts | 47° |
| 2026-04-26 19:09 | 26.75237 | 128.40074 | 26588 ft | 525 kts | 49° |
| 2026-04-26 19:09 | 26.77412 | 128.43355 | 26768 ft | 525 kts | 46° |
| 2026-04-26 19:09 | 26.79724 | 128.46507 | 26956 ft | 524 kts | 44° |
| 2026-04-26 19:10 | 26.82070 | 128.49625 | 27055 ft | 525 kts | 45° |
| 2026-04-26 19:10 | 26.84330 | 128.52855 | 27121 ft | 528 kts | 47° |
| 2026-04-26 19:10 | 26.86552 | 128.56140 | 27197 ft | 529 kts | 47° |
| 2026-04-26 19:10 | 26.88837 | 128.59360 | 27285 ft | 528 kts | 45° |
| 2026-04-26 19:11 | 26.91180 | 128.62525 | 27371 ft | 527 kts | 43° |
| 2026-04-26 19:11 | 26.93747 | 128.65330 | 27410 ft | 518 kts | 33° |
| 2026-04-26 19:11 | 26.96675 | 128.67614 | 27557 ft | 510 kts | 25° |
| 2026-04-26 19:11 | 26.99735 | 128.69605 | 27660 ft | 507 kts | 21° |
| 2026-04-26 19:12 | 27.02876 | 128.71370 | 27772 ft | 505 kts | 19° |
| 2026-04-26 19:12 | 27.06025 | 128.73142 | 27883 ft | 508 kts | 21° |
| 2026-04-26 19:12 | 27.09120 | 128.75088 | 27989 ft | 511 kts | 24° |
| 2026-04-26 19:13 | 27.15336 | 128.78950 | 28170 ft | 509 kts | 20° |
| 2026-04-26 19:13 | 27.21579 | 128.82663 | 28366 ft | 512 kts | 22° |
| 2026-04-26 19:14 | 27.27813 | 128.86533 | 28311 ft | 511 kts | 21° |
| 2026-04-26 19:14 | 27.34086 | 128.90300 | 28292 ft | 511 kts | 22° |
| 2026-04-26 19:15 | 27.40315 | 128.94147 | 28386 ft | 510 kts | 21° |
| 2026-04-26 19:15 | 27.43436 | 128.96034 | 28504 ft | 509 kts | 21° |
| 2026-04-26 19:15 | 27.46554 | 128.97930 | 28611 ft | 509 kts | 21° |
| 2026-04-26 19:15 | 27.49661 | 128.99844 | 28717 ft | 509 kts | 22° |
| 2026-04-26 19:16 | 27.52770 | 129.01758 | 28818 ft | 509 kts | 21° |
| 2026-04-26 19:16 | 27.55882 | 129.03655 | 28926 ft | 508 kts | 21° |
| 2026-04-26 19:16 | 27.58989 | 129.05552 | 28966 ft | 509 kts | 21° |
| 2026-04-26 19:17 | 27.65201 | 129.09378 | 28965 ft | 509 kts | 21° |
| 2026-04-26 19:17 | 27.71420 | 129.13191 | 28965 ft | 509 kts | 21° |
| 2026-04-26 19:18 | 27.77637 | 129.17023 | 28963 ft | 509 kts | 21° |
| 2026-04-26 19:18 | 27.83860 | 129.20852 | 28975 ft | 509 kts | 21° |
| 2026-04-26 19:19 | 27.90078 | 129.24693 | 28975 ft | 509 kts | 21° |
| 2026-04-26 19:19 | 27.96302 | 129.28535 | 28976 ft | 509 kts | 21° |
| 2026-04-26 19:20 | 28.02523 | 129.32386 | 28970 ft | 510 kts | 21° |
| 2026-04-26 19:20 | 28.08747 | 129.36239 | 28969 ft | 510 kts | 21° |
| 2026-04-26 19:21 | 28.14941 | 129.40082 | 28970 ft | 510 kts | 21° |
| 2026-04-26 19:21 | 28.21205 | 129.43981 | 28954 ft | 510 kts | 21° |
| 2026-04-26 19:22 | 28.27400 | 129.47817 | 28943 ft | 511 kts | 21° |
| 2026-04-26 19:22 | 28.33629 | 129.51707 | 28922 ft | 511 kts | 22° |
| 2026-04-26 19:23 | 28.39867 | 129.55593 | 28928 ft | 511 kts | 21° |
| 2026-04-26 19:23 | 28.46325 | 129.58620 | 28915 ft | 494 kts | 6° |
| 2026-04-26 19:24 | 28.53058 | 129.59811 | 28927 ft | 487 kts | 359° |
| 2026-04-26 19:24 | 28.63159 | 129.61296 | 28938 ft | 490 kts | 2° |
| 2026-04-26 19:25 | 28.67669 | 129.61985 | 28939 ft | 487 kts | 360° |
| 2026-04-26 19:25 | 28.75498 | 129.63126 | 28949 ft | 489 kts | 1° |
| 2026-04-26 19:26 | 28.82223 | 129.64184 | 28948 ft | 487 kts | 0° |
| 2026-04-26 19:26 | 28.88951 | 129.65184 | 28944 ft | 488 kts | 1° |
| 2026-04-26 19:27 | 28.95672 | 129.66236 | 28945 ft | 487 kts | 1° |
| 2026-04-26 19:27 | 29.02394 | 129.67248 | 28941 ft | 487 kts | 1° |
| 2026-04-26 19:28 | 29.09106 | 129.68291 | 28938 ft | 487 kts | 1° |
| 2026-04-26 19:28 | 29.15819 | 129.69314 | 28939 ft | 487 kts | 1° |
| 2026-04-26 19:29 | 29.22531 | 129.70355 | 28936 ft | 486 kts | 1° |
| 2026-04-26 19:29 | 29.29236 | 129.71384 | 28938 ft | 486 kts | 1° |
| 2026-04-26 19:30 | 29.35946 | 129.72424 | 28936 ft | 486 kts | 1° |
| 2026-04-26 19:30 | 29.41524 | 129.73284 | 28936 ft | 486 kts | 1° |
| 2026-04-26 19:31 | 29.49367 | 129.74501 | 28938 ft | 486 kts | 1° |
| 2026-04-26 19:31 | 29.56069 | 129.75540 | 28938 ft | 486 kts | 1° |
| 2026-04-26 19:32 | 29.62775 | 129.76581 | 28941 ft | 486 kts | 1° |
| 2026-04-26 19:32 | 29.69481 | 129.77625 | 28941 ft | 486 kts | 1° |
| 2026-04-26 19:33 | 29.76143 | 129.78661 | 28938 ft | 486 kts | 1° |
| 2026-04-26 19:33 | 29.82848 | 129.79708 | 28938 ft | 486 kts | 1° |
| 2026-04-26 19:34 | 29.89560 | 129.80754 | 28942 ft | 487 kts | 1° |
| 2026-04-26 19:34 | 29.96277 | 129.81807 | 28944 ft | 487 kts | 1° |
| 2026-04-26 19:35 | 30.02996 | 129.82802 | 28941 ft | 485 kts | 359° |
| 2026-04-26 19:35 | 30.09713 | 129.83411 | 28942 ft | 484 kts | 358° |
| 2026-04-26 19:36 | 30.15296 | 129.84062 | 28945 ft | 486 kts | 360° |
| 2026-04-26 19:36 | 30.23155 | 129.84893 | 28946 ft | 485 kts | 358° |
| 2026-04-26 19:37 | 30.29875 | 129.85638 | 28942 ft | 485 kts | 359° |
| 2026-04-26 19:37 | 30.36590 | 129.86358 | 28944 ft | 485 kts | 359° |
| 2026-04-26 19:38 | 30.43309 | 129.87091 | 28943 ft | 485 kts | 359° |
| 2026-04-26 19:38 | 30.50026 | 129.87820 | 28946 ft | 485 kts | 359° |
| 2026-04-26 19:39 | 30.56742 | 129.88552 | 28944 ft | 485 kts | 359° |
| 2026-04-26 19:39 | 30.63456 | 129.89284 | 28945 ft | 485 kts | 359° |
| 2026-04-26 19:40 | 30.70174 | 129.90019 | 28940 ft | 484 kts | 359° |
| 2026-04-26 19:40 | 30.76838 | 129.90746 | 28940 ft | 484 kts | 359° |
| 2026-04-26 19:41 | 30.83557 | 129.91482 | 28939 ft | 484 kts | 359° |
| 2026-04-26 19:41 | 30.89131 | 129.92094 | 28968 ft | 484 kts | 359° |
| 2026-04-26 19:42 | 30.96968 | 129.92954 | 28944 ft | 484 kts | 359° |
| 2026-04-26 19:42 | 31.03673 | 129.93693 | 28945 ft | 484 kts | 359° |
| 2026-04-26 19:43 | 31.10375 | 129.94430 | 28949 ft | 483 kts | 359° |
| 2026-04-26 19:43 | 31.17072 | 129.95170 | 28937 ft | 483 kts | 359° |
| 2026-04-26 19:44 | 31.23763 | 129.95909 | 28937 ft | 483 kts | 359° |
| 2026-04-26 19:44 | 31.30458 | 129.96634 | 28971 ft | 482 kts | 358° |
| 2026-04-26 19:45 | 31.37139 | 129.97109 | 28939 ft | 481 kts | 356° |
| 2026-04-26 19:45 | 31.43819 | 129.97663 | 28942 ft | 482 kts | 358° |
| 2026-04-26 19:46 | 31.50501 | 129.98182 | 28942 ft | 481 kts | 357° |
| 2026-04-26 19:46 | 31.57193 | 129.98716 | 28941 ft | 482 kts | 358° |
| 2026-04-26 19:47 | 31.62741 | 129.99161 | 28945 ft | 481 kts | 357° |
| 2026-04-26 19:47 | 31.70560 | 129.99778 | 28944 ft | 482 kts | 358° |
| 2026-04-26 19:48 | 31.77206 | 130.00308 | 28944 ft | 481 kts | 357° |
| 2026-04-26 19:48 | 31.83886 | 130.00841 | 28944 ft | 482 kts | 358° |
| 2026-04-26 19:49 | 31.90294 | 130.01353 | 28944 ft | 481 kts | 357° |
| 2026-04-26 19:49 | 31.96980 | 130.01888 | 28947 ft | 482 kts | 358° |
| 2026-04-26 19:50 | 32.03666 | 130.02424 | 28938 ft | 481 kts | 357° |
| 2026-04-26 19:50 | 32.10350 | 130.02963 | 28941 ft | 481 kts | 358° |
| 2026-04-26 19:51 | 32.17045 | 130.03501 | 28942 ft | 482 kts | 358° |
| 2026-04-26 19:51 | 32.23746 | 130.04043 | 28943 ft | 483 kts | 358° |
| 2026-04-26 19:52 | 32.30446 | 130.04584 | 28943 ft | 483 kts | 358° |
| 2026-04-26 19:52 | 32.37138 | 130.05124 | 28943 ft | 481 kts | 357° |
| 2026-04-26 19:53 | 32.43828 | 130.05666 | 28934 ft | 482 kts | 358° |
| 2026-04-26 19:53 | 32.50507 | 130.06214 | 28940 ft | 481 kts | 358° |
| 2026-04-26 19:54 | 32.57196 | 130.06752 | 28944 ft | 481 kts | 357° |
| 2026-04-26 19:54 | 32.63764 | 130.06293 | 28945 ft | 469 kts | 344° |
| 2026-04-26 19:55 | 32.70080 | 130.04537 | 28948 ft | 466 kts | 341° |
| 2026-04-26 19:55 | 32.76412 | 130.02995 | 28944 ft | 470 kts | 343° |
| 2026-04-26 19:56 | 32.82750 | 130.01364 | 28948 ft | 463 kts | 341° |
| 2026-04-26 19:56 | 32.89061 | 129.99749 | 28948 ft | 465 kts | 343° |
| 2026-04-26 19:57 | 32.95376 | 129.98152 | 28943 ft | 464 kts | 342° |
| 2026-04-26 19:57 | 33.01669 | 129.96528 | 28692 ft | 455 kts | 342° |
| 2026-04-26 19:58 | 33.04727 | 129.95767 | 28455 ft | 443 kts | 342° |
| 2026-04-26 19:58 | 33.07705 | 129.95005 | 28212 ft | 433 kts | 341° |
| 2026-04-26 19:58 | 33.10618 | 129.94244 | 27961 ft | 424 kts | 341° |
| 2026-04-26 19:58 | 33.13474 | 129.93507 | 27730 ft | 416 kts | 341° |
| 2026-04-26 19:59 | 33.16283 | 129.92795 | 27485 ft | 410 kts | 341° |
| 2026-04-26 19:59 | 33.19050 | 129.92088 | 27246 ft | 404 kts | 341° |
| 2026-04-26 19:59 | 33.21784 | 129.91382 | 27031 ft | 399 kts | 341° |
| 2026-04-26 19:59 | 33.24482 | 129.90686 | 26795 ft | 394 kts | 341° |
| 2026-04-26 20:00 | 33.27150 | 129.90001 | 26566 ft | 391 kts | 341° |
| 2026-04-26 20:00 | 33.29810 | 129.89315 | 26172 ft | 392 kts | 341° |
| 2026-04-26 20:00 | 33.32487 | 129.88623 | 25738 ft | 395 kts | 341° |
| 2026-04-26 20:00 | 33.35194 | 129.87925 | 25306 ft | 403 kts | 341° |
| 2026-04-26 20:01 | 33.37965 | 129.87209 | 24883 ft | 412 kts | 341° |
| 2026-04-26 20:01 | 33.40803 | 129.86478 | 24410 ft | 422 kts | 342° |
| 2026-04-26 20:01 | 33.43707 | 129.85728 | 23910 ft | 432 kts | 342° |
| 2026-04-26 20:01 | 33.46721 | 129.85158 | 23371 ft | 448 kts | 352° |
| 2026-04-26 20:02 | 33.49886 | 129.85396 | 22746 ft | 465 kts | 4° |
| 2026-04-26 20:02 | 33.53071 | 129.86228 | 22152 ft | 474 kts | 10° |
| 2026-04-26 20:02 | 33.56236 | 129.87398 | 21405 ft | 476 kts | 14° |
| 2026-04-26 20:02 | 33.58303 | 129.88271 | 20892 ft | 475 kts | 15° |
| 2026-04-26 20:03 | 33.62473 | 129.89923 | 19886 ft | 468 kts | 11° |
| 2026-04-26 20:03 | 33.65606 | 129.90912 | 19148 ft | 464 kts | 9° |
| 2026-04-26 20:03 | 33.68710 | 129.91932 | 18427 ft | 461 kts | 12° |
| 2026-04-26 20:03 | 33.71733 | 129.93095 | 17599 ft | 449 kts | 14° |
| 2026-04-26 20:04 | 33.74662 | 129.94224 | 16623 ft | 437 kts | 13° |
| 2026-04-26 20:04 | 33.77548 | 129.95179 | 15654 ft | 423 kts | 8° |
| 2026-04-26 20:04 | 33.80419 | 129.95668 | 14734 ft | 411 kts | 1° |
| 2026-04-26 20:04 | 33.83239 | 129.95824 | 13838 ft | 402 kts | 358° |
| 2026-04-26 20:05 | 33.86011 | 129.95941 | 12860 ft | 396 kts | 4° |
| 2026-04-26 20:05 | 33.88671 | 129.96727 | 12055 ft | 390 kts | 17° |
| 2026-04-26 20:05 | 33.91146 | 129.97971 | 11308 ft | 378 kts | 22° |
| 2026-04-26 20:05 | 33.93381 | 129.99389 | 10577 ft | 350 kts | 26° |
| 2026-04-26 20:06 | 33.95450 | 130.00743 | 9855 ft | 328 kts | 24° |
| 2026-04-26 20:06 | 33.97428 | 130.01969 | 9065 ft | 314 kts | 28° |
| 2026-04-26 20:06 | 33.99143 | 130.03635 | 8311 ft | 320 kts | 41° |
| 2026-04-26 20:06 | 34.00647 | 130.05579 | 7982 ft | 310 kts | 47° |
| 2026-04-26 20:07 | 34.01996 | 130.07576 | 7977 ft | 309 kts | 49° |
| 2026-04-26 20:07 | 34.03395 | 130.09569 | 7972 ft | 315 kts | 46° |
| 2026-04-26 20:07 | 34.04867 | 130.11560 | 7973 ft | 320 kts | 47° |
| 2026-04-26 20:07 | 34.06042 | 130.13806 | 7974 ft | 312 kts | 63° |
| 2026-04-26 20:08 | 34.06802 | 130.16164 | 7972 ft | 291 kts | 70° |
| 2026-04-26 20:08 | 34.07405 | 130.18574 | 7973 ft | 313 kts | 71° |
| 2026-04-26 20:08 | 34.08054 | 130.21072 | 7981 ft | 302 kts | 69° |
| 2026-04-26 20:08 | 34.08708 | 130.23357 | 7971 ft | 280 kts | 68° |
| 2026-04-26 20:09 | 34.09298 | 130.25575 | 7968 ft | 281 kts | 76° |
| 2026-04-26 20:09 | 34.09443 | 130.28007 | 7982 ft | 301 kts | 89° |
| 2026-04-26 20:09 | 34.09265 | 130.30579 | 7991 ft | 308 kts | 98° |
| 2026-04-26 20:09 | 34.08584 | 130.32981 | 7993 ft | 300 kts | 117° |
| 2026-04-26 20:10 | 34.07405 | 130.34971 | 7993 ft | 293 kts | 134° |
| 2026-04-26 20:10 | 34.05828 | 130.36463 | 7988 ft | 285 kts | 151° |
| 2026-04-26 20:10 | 34.04019 | 130.37343 | 7983 ft | 277 kts | 168° |
| 2026-04-26 20:10 | 34.02065 | 130.37591 | 7984 ft | 293 kts | 184° |
| 2026-04-26 20:11 | 33.99988 | 130.37215 | 7995 ft | 318 kts | 195° |
| 2026-04-26 20:11 | 33.97724 | 130.36440 | 7958 ft | 360 kts | 199° |
| 2026-04-26 20:11 | 33.95240 | 130.35493 | 7659 ft | 375 kts | 198° |
| 2026-04-26 20:12 | 33.90356 | 130.33970 | 7041 ft | 350 kts | 195° |
| 2026-04-26 20:12 | 33.88058 | 130.33221 | 6724 ft | 335 kts | 197° |
| 2026-04-26 20:12 | 33.85857 | 130.32464 | 6408 ft | 322 kts | 197° |
| 2026-04-26 20:12 | 33.83775 | 130.31776 | 5877 ft | 301 kts | 196° |
| 2026-04-26 20:13 | 33.81804 | 130.31145 | 5327 ft | 285 kts | 197° |
| 2026-04-26 20:13 | 33.79922 | 130.30575 | 4797 ft | 273 kts | 197° |
| 2026-04-26 20:13 | 33.78701 | 130.30177 | 4432 ft | 266 kts | 198° |
| 2026-04-26 20:13 | 33.76923 | 130.29722 | 3890 ft | 258 kts | 184° |
| 2026-04-26 20:14 | 33.75261 | 130.30248 | 3335 ft | 242 kts | 148° |
| 2026-04-26 20:14 | 33.74184 | 130.31684 | 2798 ft | 224 kts | 126° |
| 2026-04-26 20:14 | 33.73166 | 130.32998 | 2256 ft | 207 kts | 142° |
| 2026-04-26 20:14 | 33.72108 | 130.34008 | 1995 ft | 183 kts | 142° |
| 2026-04-26 20:15 | 33.71186 | 130.34914 | 1978 ft | 166 kts | 143° |
| 2026-04-26 20:15 | 33.70308 | 130.35773 | 1991 ft | 160 kts | 143° |
| 2026-04-26 20:15 | 33.69458 | 130.36618 | 1995 ft | 161 kts | 141° |
| 2026-04-26 20:15 | 33.68660 | 130.37657 | 2011 ft | 172 kts | 131° |
| 2026-04-26 20:16 | 33.67851 | 130.38520 | 1964 ft | 145 kts | 150° |
| 2026-04-26 20:16 | 33.66972 | 130.39174 | 1787 ft | 153 kts | 152° |
| 2026-04-26 20:16 | 33.66022 | 130.39815 | 1618 ft | 164 kts | 154° |
| 2026-04-26 20:16 | 33.65080 | 130.40421 | 1498 ft | 144 kts | 154° |
| 2026-04-26 20:17 | 33.64216 | 130.41001 | 1129 ft | 142 kts | 151° |
| 2026-04-26 20:17 | 33.63395 | 130.41580 | 971 ft | 127 kts | 152° |
| 2026-04-26 20:17 | 33.62639 | 130.42066 | 722 ft | 121 kts | 153° |
| 2026-04-26 20:17 | 33.61887 | 130.42597 | 620 ft | 126 kts | 148° |
| 2026-04-26 20:18 | 33.61120 | 130.43130 | 419 ft | 128 kts | 152° |
| 2026-04-26 20:18 | 33.60351 | 130.43635 | 273 ft | 127 kts | 151° |
| 2026-04-26 20:18 | 33.59551 | 130.44177 | 86 ft | 131 kts | 151° |
| 2026-04-26 20:18 | 33.58839 | 130.44657 | 35 ft | 102 kts | 150° |
| 2026-04-26 20:19 | 33.58379 | 130.44963 | 43 ft | 54 kts | 150° |
| 2026-04-26 20:19 | 33.58151 | 130.45118 | 40 ft | 25 kts | 150° |
| 2026-04-26 20:19 | 33.58012 | 130.45192 | 39 ft | 16 kts | 186° |
| 2026-04-26 20:19 | 33.57966 | 130.45153 | 39 ft | 0 kts | 232° |
| 2026-04-26 20:20 | 33.57957 | 130.45125 | 40 ft | 5 kts | 278° |
| 2026-04-26 20:21 | 33.58000 | 130.45080 | 39 ft | 11 kts | 328° |
| 2026-04-26 20:21 | 33.58071 | 130.45030 | 39 ft | 13 kts | 330° |
| 2026-04-26 20:21 | 33.58153 | 130.44975 | 41 ft | 15 kts | 331° |
| 2026-04-26 20:21 | 33.58200 | 130.44920 | 40 ft | 6 kts | 251° |
| 2026-04-26 20:22 | 33.58175 | 130.44861 | 40 ft | 9 kts | 240° |
| 2026-04-26 20:22 | 33.58131 | 130.44818 | 38 ft | 8 kts | 163° |
| 2026-04-26 20:22 | 33.58118 | 130.44826 | 38 ft | 0 kts | 147° |
| 2026-04-26 20:23 | 33.58108 | 130.44848 | 39 ft | 5 kts | 94° |
| 2026-04-26 20:24 | 33.58133 | 130.44872 | 36 ft | 10 kts | 11° |
| 2026-04-26 20:24 | 33.58262 | 130.44890 | 41 ft | 16 kts | 349° |
| 2026-04-26 20:24 | 33.58295 | 130.44788 | 41 ft | 10 kts | 223° |
| 2026-04-26 20:24 | 33.58275 | 130.44780 | 41 ft | 0 kts | 182° |
| 2026-04-26 20:25 | 33.58268 | 130.44782 | 41 ft | 0 kts | 195° |
| 2026-04-26 20:25 | 33.58261 | 130.44780 | 41 ft | 3 kts | 187° |
| 2026-04-26 20:25 | 33.58256 | 130.44781 | 41 ft | 0 kts | 154° |